sensor_id;sensor_type;location;lat;lon;timestamp;P1;durP1;ratioP1;P2;durP2;ratioP2
30420;SDS011;17218;54.070;10.012;2023-04-04T00:01:40;5.00;;;2.57;;
30420;SDS011;17218;54.070;10.012;2023-04-04T00:04:07;5.77;;;3.13;;
30420;SDS011;17218;54.070;10.012;2023-04-04T00:06:33;4.17;;;2.30;;
30420;SDS011;17218;54.070;10.012;2023-04-04T00:09:01;4.77;;;3.23;;
30420;SDS011;17218;54.070;10.012;2023-04-04T00:11:28;5.37;;;2.67;;
30420;SDS011;17218;54.070;10.012;2023-04-04T00:13:54;7.00;;;2.57;;
30420;SDS011;17218;54.070;10.012;2023-04-04T00:16:21;5.47;;;3.00;;
30420;SDS011;17218;54.070;10.012;2023-04-04T00:18:48;7.27;;;2.97;;
30420;SDS011;17218;54.070;10.012;2023-04-04T00:21:14;5.63;;;2.63;;
30420;SDS011;17218;54.070;10.012;2023-04-04T00:23:41;5.77;;;2.47;;
30420;SDS011;17218;54.070;10.012;2023-04-04T00:26:08;5.03;;;2.90;;
30420;SDS011;17218;54.070;10.012;2023-04-04T00:28:35;6.70;;;2.63;;
30420;SDS011;17218;54.070;10.012;2023-04-04T00:31:01;6.07;;;2.80;;
30420;SDS011;17218;54.070;10.012;2023-04-04T00:33:28;5.20;;;2.90;;
30420;SDS011;17218;54.070;10.012;2023-04-04T00:35:54;4.97;;;2.53;;
30420;SDS011;17218;54.070;10.012;2023-04-04T00:38:21;6.53;;;2.37;;
30420;SDS011;17218;54.070;10.012;2023-04-04T00:40:48;6.10;;;2.83;;
30420;SDS011;17218;54.070;10.012;2023-04-04T00:43:17;4.40;;;2.30;;
30420;SDS011;17218;54.070;10.012;2023-04-04T00:45:44;5.37;;;2.53;;
30420;SDS011;17218;54.070;10.012;2023-04-04T00:48:11;5.93;;;2.83;;
30420;SDS011;17218;54.070;10.012;2023-04-04T00:50:38;6.30;;;2.50;;
30420;SDS011;17218;54.070;10.012;2023-04-04T00:53:04;8.97;;;2.50;;
30420;SDS011;17218;54.070;10.012;2023-04-04T00:55:31;5.40;;;2.90;;
30420;SDS011;17218;54.070;10.012;2023-04-04T00:57:57;5.23;;;2.60;;
30420;SDS011;17218;54.070;10.012;2023-04-04T01:00:26;5.60;;;2.50;;
30420;SDS011;17218;54.070;10.012;2023-04-04T01:02:53;5.63;;;2.33;;
30420;SDS011;17218;54.070;10.012;2023-04-04T01:05:19;4.53;;;2.60;;
30420;SDS011;17218;54.070;10.012;2023-04-04T01:07:46;4.03;;;2.20;;
30420;SDS011;17218;54.070;10.012;2023-04-04T01:10:13;3.63;;;2.67;;
30420;SDS011;17218;54.070;10.012;2023-04-04T01:12:40;4.77;;;2.60;;
30420;SDS011;17218;54.070;10.012;2023-04-04T01:15:07;3.47;;;2.30;;
30420;SDS011;17218;54.070;10.012;2023-04-04T01:17:35;5.63;;;2.37;;
30420;SDS011;17218;54.070;10.012;2023-04-04T01:20:03;3.67;;;2.20;;
30420;SDS011;17218;54.070;10.012;2023-04-04T01:22:32;4.80;;;2.53;;
30420;SDS011;17218;54.070;10.012;2023-04-04T01:25:00;5.43;;;3.03;;
30420;SDS011;17218;54.070;10.012;2023-04-04T01:27:28;4.70;;;2.47;;
30420;SDS011;17218;54.070;10.012;2023-04-04T01:29:55;4.30;;;2.00;;
30420;SDS011;17218;54.070;10.012;2023-04-04T01:32:24;5.67;;;2.40;;
30420;SDS011;17218;54.070;10.012;2023-04-04T01:34:58;3.90;;;2.27;;
30420;SDS011;17218;54.070;10.012;2023-04-04T01:37:29;5.03;;;2.37;;
30420;SDS011;17218;54.070;10.012;2023-04-04T01:40:03;2.23;;;1.80;;
30420;SDS011;17218;54.070;10.012;2023-04-04T01:42:35;4.20;;;2.47;;
30420;SDS011;17218;54.070;10.012;2023-04-04T01:45:03;4.10;;;2.33;;
30420;SDS011;17218;54.070;10.012;2023-04-04T01:47:36;4.87;;;2.73;;
30420;SDS011;17218;54.070;10.012;2023-04-04T01:50:04;5.80;;;2.23;;
30420;SDS011;17218;54.070;10.012;2023-04-04T01:52:31;5.37;;;2.57;;
30420;SDS011;17218;54.070;10.012;2023-04-04T01:54:58;4.33;;;2.20;;
30420;SDS011;17218;54.070;10.012;2023-04-04T01:57:25;4.10;;;2.13;;
30420;SDS011;17218;54.070;10.012;2023-04-04T01:59:52;6.40;;;2.10;;
30420;SDS011;17218;54.070;10.012;2023-04-04T02:02:19;5.97;;;2.53;;
30420;SDS011;17218;54.070;10.012;2023-04-04T02:04:45;3.40;;;1.93;;
30420;SDS011;17218;54.070;10.012;2023-04-04T02:07:12;4.43;;;1.90;;
30420;SDS011;17218;54.070;10.012;2023-04-04T02:09:39;3.03;;;1.97;;
30420;SDS011;17218;54.070;10.012;2023-04-04T02:12:06;2.63;;;1.73;;
30420;SDS011;17218;54.070;10.012;2023-04-04T02:14:33;2.60;;;1.60;;
30420;SDS011;17218;54.070;10.012;2023-04-04T02:17:01;3.70;;;2.07;;
30420;SDS011;17218;54.070;10.012;2023-04-04T02:19:28;6.10;;;2.50;;
30420;SDS011;17218;54.070;10.012;2023-04-04T02:21:54;2.47;;;1.73;;
30420;SDS011;17218;54.070;10.012;2023-04-04T02:24:21;2.93;;;1.90;;
30420;SDS011;17218;54.070;10.012;2023-04-04T02:26:47;3.37;;;1.77;;
30420;SDS011;17218;54.070;10.012;2023-04-04T02:29:14;4.23;;;1.70;;
30420;SDS011;17218;54.070;10.012;2023-04-04T02:31:41;5.53;;;2.10;;
30420;SDS011;17218;54.070;10.012;2023-04-04T02:34:08;4.60;;;1.97;;
30420;SDS011;17218;54.070;10.012;2023-04-04T02:36:35;3.00;;;1.83;;
30420;SDS011;17218;54.070;10.012;2023-04-04T02:39:02;3.77;;;2.00;;
30420;SDS011;17218;54.070;10.012;2023-04-04T02:41:29;3.13;;;1.90;;
30420;SDS011;17218;54.070;10.012;2023-04-04T02:43:56;2.23;;;1.77;;
30420;SDS011;17218;54.070;10.012;2023-04-04T02:46:22;3.87;;;1.80;;
30420;SDS011;17218;54.070;10.012;2023-04-04T02:48:49;4.43;;;1.87;;
30420;SDS011;17218;54.070;10.012;2023-04-04T02:51:17;3.10;;;2.00;;
30420;SDS011;17218;54.070;10.012;2023-04-04T02:53:43;4.33;;;2.17;;
30420;SDS011;17218;54.070;10.012;2023-04-04T02:56:10;3.87;;;1.63;;
30420;SDS011;17218;54.070;10.012;2023-04-04T02:58:37;2.63;;;1.90;;
30420;SDS011;17218;54.070;10.012;2023-04-04T03:01:03;2.30;;;1.73;;
30420;SDS011;17218;54.070;10.012;2023-04-04T03:03:30;5.57;;;1.77;;
30420;SDS011;17218;54.070;10.012;2023-04-04T03:12:41;2.37;;;1.60;;
30420;SDS011;17218;54.070;10.012;2023-04-04T03:15:08;4.27;;;1.77;;
30420;SDS011;17218;54.070;10.012;2023-04-04T03:17:35;6.53;;;2.23;;
30420;SDS011;17218;54.070;10.012;2023-04-04T03:20:02;4.70;;;1.90;;
30420;SDS011;17218;54.070;10.012;2023-04-04T03:22:29;2.50;;;1.73;;
30420;SDS011;17218;54.070;10.012;2023-04-04T03:24:56;3.97;;;2.23;;
30420;SDS011;17218;54.070;10.012;2023-04-04T03:27:22;3.87;;;1.80;;
30420;SDS011;17218;54.070;10.012;2023-04-04T03:29:50;3.93;;;2.10;;
30420;SDS011;17218;54.070;10.012;2023-04-04T03:32:16;2.80;;;1.80;;
30420;SDS011;17218;54.070;10.012;2023-04-04T03:34:43;5.17;;;2.70;;
30420;SDS011;17218;54.070;10.012;2023-04-04T03:37:09;4.93;;;2.67;;
30420;SDS011;17218;54.070;10.012;2023-04-04T03:39:36;3.60;;;2.10;;
30420;SDS011;17218;54.070;10.012;2023-04-04T03:42:02;3.27;;;1.70;;
30420;SDS011;17218;54.070;10.012;2023-04-04T03:44:29;4.33;;;2.20;;
30420;SDS011;17218;54.070;10.012;2023-04-04T03:46:57;2.10;;;1.90;;
30420;SDS011;17218;54.070;10.012;2023-04-04T03:49:23;5.30;;;2.10;;
30420;SDS011;17218;54.070;10.012;2023-04-04T03:51:50;4.23;;;2.20;;
30420;SDS011;17218;54.070;10.012;2023-04-04T03:54:16;5.50;;;2.00;;
30420;SDS011;17218;54.070;10.012;2023-04-04T03:56:43;2.77;;;1.87;;
30420;SDS011;17218;54.070;10.012;2023-04-04T03:59:09;4.37;;;2.17;;
30420;SDS011;17218;54.070;10.012;2023-04-04T04:01:36;4.57;;;2.10;;
30420;SDS011;17218;54.070;10.012;2023-04-04T04:04:04;6.53;;;3.00;;
30420;SDS011;17218;54.070;10.012;2023-04-04T04:06:31;5.03;;;1.90;;
30420;SDS011;17218;54.070;10.012;2023-04-04T04:08:57;3.40;;;2.30;;
30420;SDS011;17218;54.070;10.012;2023-04-04T04:11:25;4.10;;;2.20;;
30420;SDS011;17218;54.070;10.012;2023-04-04T04:13:51;4.57;;;2.30;;
30420;SDS011;17218;54.070;10.012;2023-04-04T04:16:18;5.23;;;2.20;;
30420;SDS011;17218;54.070;10.012;2023-04-04T04:18:45;5.07;;;3.03;;
30420;SDS011;17218;54.070;10.012;2023-04-04T04:21:13;4.90;;;2.70;;
30420;SDS011;17218;54.070;10.012;2023-04-04T04:23:40;5.30;;;2.60;;
30420;SDS011;17218;54.070;10.012;2023-04-04T04:26:06;4.20;;;1.97;;
30420;SDS011;17218;54.070;10.012;2023-04-04T04:28:33;4.33;;;2.30;;
30420;SDS011;17218;54.070;10.012;2023-04-04T04:31:02;4.13;;;2.27;;
30420;SDS011;17218;54.070;10.012;2023-04-04T04:33:30;5.17;;;2.20;;
30420;SDS011;17218;54.070;10.012;2023-04-04T04:35:58;4.70;;;2.30;;
30420;SDS011;17218;54.070;10.012;2023-04-04T04:38:26;3.60;;;2.40;;
30420;SDS011;17218;54.070;10.012;2023-04-04T04:40:53;5.47;;;2.73;;
30420;SDS011;17218;54.070;10.012;2023-04-04T04:43:20;4.23;;;2.50;;
30420;SDS011;17218;54.070;10.012;2023-04-04T04:45:46;4.67;;;2.40;;
30420;SDS011;17218;54.070;10.012;2023-04-04T04:48:14;7.67;;;2.90;;
30420;SDS011;17218;54.070;10.012;2023-04-04T04:50:41;2.90;;;2.03;;
30420;SDS011;17218;54.070;10.012;2023-04-04T04:53:08;6.10;;;2.50;;
30420;SDS011;17218;54.070;10.012;2023-04-04T04:55:36;4.23;;;2.50;;
30420;SDS011;17218;54.070;10.012;2023-04-04T04:58:02;4.17;;;2.80;;
30420;SDS011;17218;54.070;10.012;2023-04-04T05:00:30;6.67;;;2.37;;
30420;SDS011;17218;54.070;10.012;2023-04-04T05:02:57;4.27;;;2.77;;
30420;SDS011;17218;54.070;10.012;2023-04-04T05:05:24;3.63;;;2.67;;
30420;SDS011;17218;54.070;10.012;2023-04-04T05:07:51;6.33;;;2.90;;
30420;SDS011;17218;54.070;10.012;2023-04-04T05:10:17;5.80;;;3.00;;
30420;SDS011;17218;54.070;10.012;2023-04-04T05:12:45;3.60;;;2.87;;
30420;SDS011;17218;54.070;10.012;2023-04-04T05:15:12;4.87;;;2.73;;
30420;SDS011;17218;54.070;10.012;2023-04-04T05:17:38;8.87;;;5.07;;
30420;SDS011;17218;54.070;10.012;2023-04-04T05:20:06;6.07;;;3.27;;
30420;SDS011;17218;54.070;10.012;2023-04-04T05:22:32;4.67;;;3.03;;
30420;SDS011;17218;54.070;10.012;2023-04-04T05:24:59;3.93;;;2.77;;
30420;SDS011;17218;54.070;10.012;2023-04-04T05:27:25;5.57;;;2.73;;
30420;SDS011;17218;54.070;10.012;2023-04-04T05:29:54;4.27;;;3.03;;
30420;SDS011;17218;54.070;10.012;2023-04-04T05:32:20;7.23;;;3.43;;
30420;SDS011;17218;54.070;10.012;2023-04-04T05:34:47;4.40;;;3.00;;
30420;SDS011;17218;54.070;10.012;2023-04-04T05:37:13;3.67;;;3.17;;
30420;SDS011;17218;54.070;10.012;2023-04-04T05:39:41;5.70;;;3.33;;
30420;SDS011;17218;54.070;10.012;2023-04-04T05:42:07;4.67;;;3.00;;
30420;SDS011;17218;54.070;10.012;2023-04-04T05:44:34;6.90;;;3.00;;
30420;SDS011;17218;54.070;10.012;2023-04-04T05:47:02;5.20;;;3.27;;
30420;SDS011;17218;54.070;10.012;2023-04-04T05:49:35;8.07;;;3.53;;
30420;SDS011;17218;54.070;10.012;2023-04-04T05:52:01;5.47;;;3.63;;
30420;SDS011;17218;54.070;10.012;2023-04-04T05:54:28;5.33;;;3.10;;
30420;SDS011;17218;54.070;10.012;2023-04-04T05:56:54;5.07;;;2.90;;
30420;SDS011;17218;54.070;10.012;2023-04-04T05:59:21;5.07;;;2.80;;
30420;SDS011;17218;54.070;10.012;2023-04-04T06:01:47;8.40;;;3.00;;
30420;SDS011;17218;54.070;10.012;2023-04-04T06:04:15;4.33;;;2.87;;
30420;SDS011;17218;54.070;10.012;2023-04-04T06:06:42;3.53;;;2.77;;
30420;SDS011;17218;54.070;10.012;2023-04-04T06:09:08;6.07;;;3.30;;
30420;SDS011;17218;54.070;10.012;2023-04-04T06:11:34;5.27;;;3.40;;
30420;SDS011;17218;54.070;10.012;2023-04-04T06:14:01;7.87;;;3.30;;
30420;SDS011;17218;54.070;10.012;2023-04-04T06:16:27;6.70;;;3.93;;
30420;SDS011;17218;54.070;10.012;2023-04-04T06:18:54;6.90;;;3.50;;
30420;SDS011;17218;54.070;10.012;2023-04-04T06:21:22;5.90;;;3.50;;
30420;SDS011;17218;54.070;10.012;2023-04-04T06:23:48;3.53;;;2.70;;
30420;SDS011;17218;54.070;10.012;2023-04-04T06:26:15;4.23;;;2.80;;
30420;SDS011;17218;54.070;10.012;2023-04-04T06:28:45;3.70;;;2.60;;
30420;SDS011;17218;54.070;10.012;2023-04-04T06:31:13;4.50;;;2.07;;
30420;SDS011;17218;54.070;10.012;2023-04-04T06:33:39;3.60;;;2.53;;
30420;SDS011;17218;54.070;10.012;2023-04-04T06:36:06;4.90;;;3.00;;
30420;SDS011;17218;54.070;10.012;2023-04-04T06:38:34;3.37;;;2.40;;
30420;SDS011;17218;54.070;10.012;2023-04-04T06:41:00;6.03;;;2.33;;
30420;SDS011;17218;54.070;10.012;2023-04-04T06:43:27;6.77;;;3.50;;
30420;SDS011;17218;54.070;10.012;2023-04-04T06:45:53;5.17;;;2.70;;
30420;SDS011;17218;54.070;10.012;2023-04-04T06:48:20;3.37;;;2.30;;
30420;SDS011;17218;54.070;10.012;2023-04-04T06:50:47;3.50;;;2.27;;
30420;SDS011;17218;54.070;10.012;2023-04-04T06:53:13;3.83;;;2.07;;
30420;SDS011;17218;54.070;10.012;2023-04-04T06:55:41;3.83;;;1.80;;
30420;SDS011;17218;54.070;10.012;2023-04-04T06:58:08;3.93;;;1.73;;
30420;SDS011;17218;54.070;10.012;2023-04-04T07:00:34;3.00;;;2.10;;
30420;SDS011;17218;54.070;10.012;2023-04-04T07:03:01;3.13;;;1.60;;
30420;SDS011;17218;54.070;10.012;2023-04-04T07:05:27;3.60;;;1.77;;
30420;SDS011;17218;54.070;10.012;2023-04-04T07:07:54;4.33;;;1.90;;
30420;SDS011;17218;54.070;10.012;2023-04-04T07:10:21;3.10;;;1.37;;
30420;SDS011;17218;54.070;10.012;2023-04-04T07:12:50;5.17;;;1.80;;
30420;SDS011;17218;54.070;10.012;2023-04-04T07:15:16;2.53;;;1.80;;
30420;SDS011;17218;54.070;10.012;2023-04-04T07:17:43;5.60;;;2.27;;
30420;SDS011;17218;54.070;10.012;2023-04-04T07:20:10;3.87;;;1.97;;
30420;SDS011;17218;54.070;10.012;2023-04-04T07:22:37;3.07;;;1.30;;
30420;SDS011;17218;54.070;10.012;2023-04-04T07:25:04;6.60;;;2.43;;
30420;SDS011;17218;54.070;10.012;2023-04-04T07:27:32;3.63;;;1.90;;
30420;SDS011;17218;54.070;10.012;2023-04-04T07:29:59;2.93;;;1.47;;
30420;SDS011;17218;54.070;10.012;2023-04-04T07:32:26;4.73;;;1.70;;
30420;SDS011;17218;54.070;10.012;2023-04-04T07:34:53;3.03;;;1.60;;
30420;SDS011;17218;54.070;10.012;2023-04-04T07:37:20;4.73;;;1.50;;
30420;SDS011;17218;54.070;10.012;2023-04-04T07:39:46;2.63;;;1.70;;
30420;SDS011;17218;54.070;10.012;2023-04-04T07:42:14;2.90;;;1.60;;
30420;SDS011;17218;54.070;10.012;2023-04-04T07:44:40;3.03;;;1.50;;
30420;SDS011;17218;54.070;10.012;2023-04-04T07:47:08;2.57;;;1.50;;
30420;SDS011;17218;54.070;10.012;2023-04-04T07:49:35;3.80;;;1.60;;
30420;SDS011;17218;54.070;10.012;2023-04-04T07:52:02;3.13;;;1.60;;
30420;SDS011;17218;54.070;10.012;2023-04-04T07:54:29;3.63;;;1.87;;
30420;SDS011;17218;54.070;10.012;2023-04-04T07:56:55;4.40;;;2.13;;
30420;SDS011;17218;54.070;10.012;2023-04-04T07:59:22;3.67;;;1.43;;
30420;SDS011;17218;54.070;10.012;2023-04-04T08:01:48;6.57;;;1.93;;
30420;SDS011;17218;54.070;10.012;2023-04-04T08:04:16;3.93;;;1.60;;
30420;SDS011;17218;54.070;10.012;2023-04-04T08:06:43;2.83;;;1.87;;
30420;SDS011;17218;54.070;10.012;2023-04-04T08:09:09;2.50;;;1.50;;
30420;SDS011;17218;54.070;10.012;2023-04-04T08:11:36;2.10;;;1.60;;
30420;SDS011;17218;54.070;10.012;2023-04-04T08:14:02;2.70;;;1.67;;
30420;SDS011;17218;54.070;10.012;2023-04-04T08:16:29;3.67;;;1.87;;
30420;SDS011;17218;54.070;10.012;2023-04-04T08:18:56;2.40;;;1.60;;
30420;SDS011;17218;54.070;10.012;2023-04-04T08:21:24;2.80;;;1.53;;
30420;SDS011;17218;54.070;10.012;2023-04-04T08:23:51;2.87;;;1.60;;
30420;SDS011;17218;54.070;10.012;2023-04-04T08:26:17;6.47;;;2.03;;
30420;SDS011;17218;54.070;10.012;2023-04-04T08:28:44;2.90;;;1.73;;
30420;SDS011;17218;54.070;10.012;2023-04-04T08:31:10;2.13;;;1.70;;
30420;SDS011;17218;54.070;10.012;2023-04-04T08:33:37;2.43;;;1.40;;
30420;SDS011;17218;54.070;10.012;2023-04-04T08:36:03;4.27;;;1.70;;
30420;SDS011;17218;54.070;10.012;2023-04-04T08:38:31;7.77;;;2.27;;
30420;SDS011;17218;54.070;10.012;2023-04-04T08:40:58;2.30;;;1.47;;
30420;SDS011;17218;54.070;10.012;2023-04-04T08:43:24;4.13;;;1.73;;
30420;SDS011;17218;54.070;10.012;2023-04-04T08:45:52;3.53;;;1.87;;
30420;SDS011;17218;54.070;10.012;2023-04-04T08:48:19;4.10;;;1.70;;
30420;SDS011;17218;54.070;10.012;2023-04-04T08:50:50;2.70;;;1.87;;
30420;SDS011;17218;54.070;10.012;2023-04-04T08:53:21;3.17;;;1.60;;
30420;SDS011;17218;54.070;10.012;2023-04-04T08:55:49;4.90;;;1.63;;
30420;SDS011;17218;54.070;10.012;2023-04-04T08:58:16;3.65;;;1.60;;
30420;SDS011;17218;54.070;10.012;2023-04-04T09:00:43;4.30;;;1.73;;
30420;SDS011;17218;54.070;10.012;2023-04-04T09:03:12;4.40;;;1.83;;
30420;SDS011;17218;54.070;10.012;2023-04-04T09:05:45;2.05;;;1.20;;
30420;SDS011;17218;54.070;10.012;2023-04-04T09:08:13;3.10;;;1.50;;
30420;SDS011;17218;54.070;10.012;2023-04-04T09:10:42;2.40;;;1.50;;
30420;SDS011;17218;54.070;10.012;2023-04-04T09:13:10;2.38;;;1.35;;
30420;SDS011;17218;54.070;10.012;2023-04-04T09:15:37;3.45;;;1.58;;
30420;SDS011;17218;54.070;10.012;2023-04-04T09:18:06;3.53;;;1.33;;
30420;SDS011;17218;54.070;10.012;2023-04-04T09:20:33;2.67;;;1.10;;
30420;SDS011;17218;54.070;10.012;2023-04-04T09:23:04;2.75;;;1.02;;
30420;SDS011;17218;54.070;10.012;2023-04-04T09:25:32;2.88;;;1.23;;
30420;SDS011;17218;54.070;10.012;2023-04-04T09:27:58;0.93;;;0.70;;
30420;SDS011;17218;54.070;10.012;2023-04-04T09:30:28;1.60;;;0.90;;
30420;SDS011;17218;54.070;10.012;2023-04-04T09:32:54;1.75;;;1.02;;
30420;SDS011;17218;54.070;10.012;2023-04-04T09:35:22;2.03;;;1.15;;
30420;SDS011;17218;54.070;10.012;2023-04-04T09:37:49;2.00;;;0.70;;
30420;SDS011;17218;54.070;10.012;2023-04-04T09:40:16;2.47;;;0.90;;
30420;SDS011;17218;54.070;10.012;2023-04-04T09:42:42;2.13;;;1.00;;
30420;SDS011;17218;54.070;10.012;2023-04-04T09:45:09;2.70;;;1.20;;
30420;SDS011;17218;54.070;10.012;2023-04-04T09:47:40;2.28;;;1.05;;
30420;SDS011;17218;54.070;10.012;2023-04-04T09:50:07;1.67;;;1.23;;
30420;SDS011;17218;54.070;10.012;2023-04-04T09:52:34;1.35;;;1.05;;
30420;SDS011;17218;54.070;10.012;2023-04-04T09:55:01;1.50;;;1.10;;
30420;SDS011;17218;54.070;10.012;2023-04-04T09:57:29;2.88;;;1.52;;
30420;SDS011;17218;54.070;10.012;2023-04-04T09:59:57;2.28;;;1.58;;
30420;SDS011;17218;54.070;10.012;2023-04-04T10:02:25;2.17;;;1.35;;
30420;SDS011;17218;54.070;10.012;2023-04-04T10:04:53;2.03;;;1.17;;
30420;SDS011;17218;54.070;10.012;2023-04-04T10:07:21;1.55;;;1.15;;
30420;SDS011;17218;54.070;10.012;2023-04-04T10:09:48;5.10;;;1.30;;
30420;SDS011;17218;54.070;10.012;2023-04-04T10:12:16;3.58;;;1.38;;
30420;SDS011;17218;54.070;10.012;2023-04-04T10:14:48;1.65;;;1.20;;
30420;SDS011;17218;54.070;10.012;2023-04-04T10:17:14;2.50;;;1.00;;
30420;SDS011;17218;54.070;10.012;2023-04-04T10:19:41;2.37;;;1.40;;
30420;SDS011;17218;54.070;10.012;2023-04-04T10:22:10;2.00;;;1.17;;
30420;SDS011;17218;54.070;10.012;2023-04-04T10:24:37;4.20;;;1.50;;
30420;SDS011;17218;54.070;10.012;2023-04-04T10:27:03;2.80;;;1.15;;
30420;SDS011;17218;54.070;10.012;2023-04-04T10:29:30;2.53;;;1.17;;
30420;SDS011;17218;54.070;10.012;2023-04-04T10:31:58;4.22;;;1.17;;
30420;SDS011;17218;54.070;10.012;2023-04-04T10:34:27;2.97;;;1.17;;
30420;SDS011;17218;54.070;10.012;2023-04-04T10:37:01;2.30;;;0.90;;
30420;SDS011;17218;54.070;10.012;2023-04-04T10:39:35;2.65;;;1.13;;
30420;SDS011;17218;54.070;10.012;2023-04-04T10:42:06;1.50;;;1.08;;
30420;SDS011;17218;54.070;10.012;2023-04-04T10:44:36;2.35;;;1.20;;
30420;SDS011;17218;54.070;10.012;2023-04-04T10:47:06;2.78;;;1.13;;
30420;SDS011;17218;54.070;10.012;2023-04-04T10:49:39;2.05;;;1.30;;
30420;SDS011;17218;54.070;10.012;2023-04-04T10:52:07;2.70;;;1.35;;
30420;SDS011;17218;54.070;10.012;2023-04-04T10:54:36;2.38;;;1.10;;
30420;SDS011;17218;54.070;10.012;2023-04-04T10:57:03;1.55;;;0.90;;
30420;SDS011;17218;54.070;10.012;2023-04-04T10:59:30;3.05;;;1.17;;
30420;SDS011;17218;54.070;10.012;2023-04-04T11:01:56;3.35;;;1.10;;
30420;SDS011;17218;54.070;10.012;2023-04-04T11:04:27;2.03;;;1.13;;
30420;SDS011;17218;54.070;10.012;2023-04-04T11:09:54;3.72;;;1.10;;
30420;SDS011;17218;54.070;10.012;2023-04-04T11:12:26;1.20;;;1.10;;
30420;SDS011;17218;54.070;10.012;2023-04-04T11:14:54;3.15;;;1.20;;
30420;SDS011;17218;54.070;10.012;2023-04-04T11:20:18;2.25;;;1.45;;
30420;SDS011;17218;54.070;10.012;2023-04-04T11:22:48;2.10;;;1.25;;
30420;SDS011;17218;54.070;10.012;2023-04-04T11:25:26;2.35;;;1.30;;
30420;SDS011;17218;54.070;10.012;2023-04-04T11:27:54;2.72;;;1.17;;
30420;SDS011;17218;54.070;10.012;2023-04-04T11:30:21;2.22;;;1.25;;
30420;SDS011;17218;54.070;10.012;2023-04-04T11:32:48;3.10;;;1.70;;
30420;SDS011;17218;54.070;10.012;2023-04-04T11:35:16;3.70;;;1.20;;
30420;SDS011;17218;54.070;10.012;2023-04-04T11:37:42;1.33;;;1.10;;
30420;SDS011;17218;54.070;10.012;2023-04-04T11:40:09;1.83;;;1.08;;
30420;SDS011;17218;54.070;10.012;2023-04-04T11:42:39;3.38;;;1.15;;
30420;SDS011;17218;54.070;10.012;2023-04-04T11:45:07;1.65;;;1.00;;
30420;SDS011;17218;54.070;10.012;2023-04-04T11:47:34;1.58;;;1.25;;
30420;SDS011;17218;54.070;10.012;2023-04-04T11:50:06;1.50;;;1.02;;
30420;SDS011;17218;54.070;10.012;2023-04-04T11:52:33;1.70;;;1.05;;
30420;SDS011;17218;54.070;10.012;2023-04-04T11:55:00;2.35;;;1.08;;
30420;SDS011;17218;54.070;10.012;2023-04-04T11:57:27;2.75;;;1.00;;
30420;SDS011;17218;54.070;10.012;2023-04-04T11:59:55;3.03;;;1.65;;
30420;SDS011;17218;54.070;10.012;2023-04-04T12:02:23;2.35;;;1.20;;
30420;SDS011;17218;54.070;10.012;2023-04-04T12:04:51;2.97;;;1.00;;
30420;SDS011;17218;54.070;10.012;2023-04-04T12:07:19;1.85;;;1.17;;
30420;SDS011;17218;54.070;10.012;2023-04-04T12:09:45;2.05;;;1.20;;
30420;SDS011;17218;54.070;10.012;2023-04-04T12:12:13;1.52;;;1.00;;
30420;SDS011;17218;54.070;10.012;2023-04-04T12:14:40;2.28;;;1.00;;
30420;SDS011;17218;54.070;10.012;2023-04-04T12:17:09;3.88;;;1.30;;
30420;SDS011;17218;54.070;10.012;2023-04-04T12:19:36;2.08;;;1.10;;
30420;SDS011;17218;54.070;10.012;2023-04-04T12:22:03;2.22;;;0.95;;
30420;SDS011;17218;54.070;10.012;2023-04-04T12:24:31;2.03;;;1.20;;
30420;SDS011;17218;54.070;10.012;2023-04-04T12:26:58;2.63;;;1.10;;
30420;SDS011;17218;54.070;10.012;2023-04-04T12:29:27;1.30;;;1.00;;
30420;SDS011;17218;54.070;10.012;2023-04-04T12:32:00;1.73;;;1.10;;
30420;SDS011;17218;54.070;10.012;2023-04-04T12:34:29;2.88;;;1.17;;
30420;SDS011;17218;54.070;10.012;2023-04-04T12:36:58;1.70;;;1.25;;
30420;SDS011;17218;54.070;10.012;2023-04-04T12:39:26;2.63;;;1.05;;
30420;SDS011;17218;54.070;10.012;2023-04-04T12:41:55;2.90;;;1.42;;
30420;SDS011;17218;54.070;10.012;2023-04-04T12:44:26;2.95;;;1.20;;
30420;SDS011;17218;54.070;10.012;2023-04-04T12:46:55;1.35;;;0.98;;
30420;SDS011;17218;54.070;10.012;2023-04-04T12:49:22;2.70;;;1.20;;
30420;SDS011;17218;54.070;10.012;2023-04-04T12:51:54;2.47;;;1.20;;
30420;SDS011;17218;54.070;10.012;2023-04-04T12:54:25;2.55;;;1.13;;
30420;SDS011;17218;54.070;10.012;2023-04-04T12:56:54;1.60;;;1.23;;
30420;SDS011;17218;54.070;10.012;2023-04-04T12:59:22;2.30;;;1.10;;
30420;SDS011;17218;54.070;10.012;2023-04-04T13:01:49;1.80;;;1.10;;
30420;SDS011;17218;54.070;10.012;2023-04-04T13:04:16;1.88;;;1.30;;
30420;SDS011;17218;54.070;10.012;2023-04-04T13:06:43;2.58;;;1.20;;
30420;SDS011;17218;54.070;10.012;2023-04-04T13:09:16;1.00;;;0.90;;
30420;SDS011;17218;54.070;10.012;2023-04-04T13:11:56;2.95;;;1.48;;
30420;SDS011;17218;54.070;10.012;2023-04-04T13:14:25;2.05;;;1.02;;
30420;SDS011;17218;54.070;10.012;2023-04-04T13:17:02;2.40;;;1.20;;
30420;SDS011;17218;54.070;10.012;2023-04-04T13:19:31;2.58;;;1.30;;
30420;SDS011;17218;54.070;10.012;2023-04-04T13:21:59;1.92;;;1.15;;
30420;SDS011;17218;54.070;10.012;2023-04-04T13:24:28;1.75;;;1.20;;
30420;SDS011;17218;54.070;10.012;2023-04-04T13:26:54;2.90;;;1.30;;
30420;SDS011;17218;54.070;10.012;2023-04-04T13:29:21;1.92;;;1.42;;
30420;SDS011;17218;54.070;10.012;2023-04-04T13:31:49;2.33;;;1.13;;
30420;SDS011;17218;54.070;10.012;2023-04-04T13:34:16;3.22;;;1.55;;
30420;SDS011;17218;54.070;10.012;2023-04-04T13:36:42;2.58;;;1.33;;
30420;SDS011;17218;54.070;10.012;2023-04-04T13:39:11;3.60;;;1.42;;
30420;SDS011;17218;54.070;10.012;2023-04-04T13:41:38;2.90;;;1.15;;
30420;SDS011;17218;54.070;10.012;2023-04-04T13:44:05;3.20;;;1.48;;
30420;SDS011;17218;54.070;10.012;2023-04-04T13:46:31;2.92;;;1.20;;
30420;SDS011;17218;54.070;10.012;2023-04-04T13:48:58;1.42;;;1.10;;
30420;SDS011;17218;54.070;10.012;2023-04-04T13:51:25;2.22;;;1.23;;
30420;SDS011;17218;54.070;10.012;2023-04-04T13:53:52;2.60;;;1.15;;
30420;SDS011;17218;54.070;10.012;2023-04-04T13:56:18;2.95;;;1.20;;
30420;SDS011;17218;54.070;10.012;2023-04-04T13:58:47;1.40;;;0.90;;
30420;SDS011;17218;54.070;10.012;2023-04-04T14:01:14;2.55;;;1.13;;
30420;SDS011;17218;54.070;10.012;2023-04-04T14:03:41;4.80;;;2.13;;
30420;SDS011;17218;54.070;10.012;2023-04-04T14:06:07;2.42;;;1.30;;
30420;SDS011;17218;54.070;10.012;2023-04-04T14:08:34;2.40;;;1.10;;
30420;SDS011;17218;54.070;10.012;2023-04-04T14:11:00;2.00;;;1.27;;
30420;SDS011;17218;54.070;10.012;2023-04-04T14:13:27;1.83;;;1.10;;
30420;SDS011;17218;54.070;10.012;2023-04-04T14:15:55;3.53;;;1.05;;
30420;SDS011;17218;54.070;10.012;2023-04-04T14:18:21;1.40;;;1.02;;
30420;SDS011;17218;54.070;10.012;2023-04-04T14:20:48;2.92;;;1.20;;
30420;SDS011;17218;54.070;10.012;2023-04-04T14:23:14;1.40;;;1.23;;
30420;SDS011;17218;54.070;10.012;2023-04-04T14:25:41;1.27;;;1.13;;
30420;SDS011;17218;54.070;10.012;2023-04-04T14:28:07;1.83;;;1.13;;
30420;SDS011;17218;54.070;10.012;2023-04-04T14:30:34;1.27;;;1.10;;
30420;SDS011;17218;54.070;10.012;2023-04-04T14:33:01;1.45;;;1.23;;
30420;SDS011;17218;54.070;10.012;2023-04-04T14:35:28;2.63;;;1.30;;
30420;SDS011;17218;54.070;10.012;2023-04-04T14:37:55;1.88;;;1.25;;
30420;SDS011;17218;54.070;10.012;2023-04-04T14:40:21;1.73;;;1.13;;
30420;SDS011;17218;54.070;10.012;2023-04-04T14:42:47;1.92;;;1.10;;
30420;SDS011;17218;54.070;10.012;2023-04-04T14:45:14;1.63;;;1.30;;
30420;SDS011;17218;54.070;10.012;2023-04-04T14:47:41;1.30;;;1.17;;